sensor_id;sensor_type;location;lat;lon;timestamp;temperature;humidity
61374;DHT22;47242;48.158;-1.586;2023-02-01T05:31:19;10.00;72.10
61374;DHT22;47242;48.158;-1.586;2023-02-01T05:33:45;10.00;72.30
61374;DHT22;47242;48.158;-1.586;2023-02-01T05:36:11;9.90;72.40
61374;DHT22;47242;48.158;-1.586;2023-02-01T05:38:36;9.90;72.30
61374;DHT22;47242;48.158;-1.586;2023-02-01T05:41:02;10.00;72.40
61374;DHT22;47242;48.158;-1.586;2023-02-01T05:43:28;10.00;72.10
61374;DHT22;47242;48.158;-1.586;2023-02-01T05:45:53;10.00;71.80
61374;DHT22;47242;48.158;-1.586;2023-02-01T05:48:19;10.00;71.80
61374;DHT22;47242;48.158;-1.586;2023-02-01T05:50:45;10.00;71.70
61374;DHT22;47242;48.158;-1.586;2023-02-01T05:53:11;10.00;71.70
61374;DHT22;47242;48.158;-1.586;2023-02-01T05:55:37;10.00;71.60
61374;DHT22;47242;48.158;-1.586;2023-02-01T05:58:04;10.00;71.20
61374;DHT22;47242;48.158;-1.586;2023-02-01T06:00:50;10.00;71.60
61374;DHT22;47242;48.158;-1.586;2023-02-01T06:03:17;10.00;71.20
61374;DHT22;47242;48.158;-1.586;2023-02-01T06:05:46;10.00;71.60
61374;DHT22;47242;48.158;-1.586;2023-02-01T06:08:12;10.00;71.30
61374;DHT22;47242;48.158;-1.586;2023-02-01T06:10:38;10.00;71.00
61374;DHT22;47242;48.158;-1.586;2023-02-01T06:13:04;10.00;71.40
61374;DHT22;47242;48.158;-1.586;2023-02-01T06:15:30;10.00;71.50
61374;DHT22;47242;48.158;-1.586;2023-02-01T06:17:57;10.00;71.30
61374;DHT22;47242;48.158;-1.586;2023-02-01T06:20:25;10.00;71.10
61374;DHT22;47242;48.158;-1.586;2023-02-01T06:22:50;10.10;71.40
61374;DHT22;47242;48.158;-1.586;2023-02-01T06:25:17;10.10;71.20
61374;DHT22;47242;48.158;-1.586;2023-02-01T06:27:44;10.10;71.20
61374;DHT22;47242;48.158;-1.586;2023-02-01T06:30:11;10.00;70.80
61374;DHT22;47242;48.158;-1.586;2023-02-01T06:32:41;10.00;71.20
61374;DHT22;47242;48.158;-1.586;2023-02-01T06:35:08;10.00;71.70
61374;DHT22;47242;48.158;-1.586;2023-02-01T06:37:37;10.00;71.60
61374;DHT22;47242;48.158;-1.586;2023-02-01T06:40:03;10.00;71.70
61374;DHT22;47242;48.158;-1.586;2023-02-01T06:42:29;10.00;71.90
61374;DHT22;47242;48.158;-1.586;2023-02-01T06:44:55;10.00;72.10
61374;DHT22;47242;48.158;-1.586;2023-02-01T06:47:20;9.90;72.20
61374;DHT22;47242;48.158;-1.586;2023-02-01T06:49:46;9.90;72.40
61374;DHT22;47242;48.158;-1.586;2023-02-01T06:52:12;9.90;72.30
61374;DHT22;47242;48.158;-1.586;2023-02-01T06:54:37;9.90;72.10
61374;DHT22;47242;48.158;-1.586;2023-02-01T06:57:03;9.90;72.20
61374;DHT22;47242;48.158;-1.586;2023-02-01T06:59:29;9.90;72.20
61374;DHT22;47242;48.158;-1.586;2023-02-01T07:01:54;9.90;72.30
61374;DHT22;47242;48.158;-1.586;2023-02-01T07:04:20;9.80;72.60
61374;DHT22;47242;48.158;-1.586;2023-02-01T07:06:46;9.90;72.80
61374;DHT22;47242;48.158;-1.586;2023-02-01T07:09:11;9.90;72.20
61374;DHT22;47242;48.158;-1.586;2023-02-01T07:11:39;9.90;72.50
61374;DHT22;47242;48.158;-1.586;2023-02-01T07:14:09;9.90;72.60
61374;DHT22;47242;48.158;-1.586;2023-02-01T07:16:34;9.90;72.40
61374;DHT22;47242;48.158;-1.586;2023-02-01T07:19:00;9.90;72.40
61374;DHT22;47242;48.158;-1.586;2023-02-01T07:21:27;9.90;72.40
61374;DHT22;47242;48.158;-1.586;2023-02-01T07:23:54;9.90;72.70
61374;DHT22;47242;48.158;-1.586;2023-02-01T07:26:22;9.90;72.80
61374;DHT22;47242;48.158;-1.586;2023-02-01T07:28:48;9.90;72.80
61374;DHT22;47242;48.158;-1.586;2023-02-01T07:31:16;9.90;72.90
61374;DHT22;47242;48.158;-1.586;2023-02-01T07:33:44;9.90;72.60
61374;DHT22;47242;48.158;-1.586;2023-02-01T07:36:12;9.90;73.20
61374;DHT22;47242;48.158;-1.586;2023-02-01T07:38:38;9.80;72.80
61374;DHT22;47242;48.158;-1.586;2023-02-01T07:41:05;9.80;72.80
61374;DHT22;47242;48.158;-1.586;2023-02-01T07:43:37;9.80;73.00
61374;DHT22;47242;48.158;-1.586;2023-02-01T07:46:05;9.80;73.40
61374;DHT22;47242;48.158;-1.586;2023-02-01T07:48:31;9.80;73.40
61374;DHT22;47242;48.158;-1.586;2023-02-01T07:51:06;9.70;73.50
61374;DHT22;47242;48.158;-1.586;2023-02-01T07:53:33;9.80;73.00
61374;DHT22;47242;48.158;-1.586;2023-02-01T07:55:59;9.80;73.20
61374;DHT22;47242;48.158;-1.586;2023-02-01T07:58:25;9.80;73.10
61374;DHT22;47242;48.158;-1.586;2023-02-01T08:00:51;9.80;73.40
61374;DHT22;47242;48.158;-1.586;2023-02-01T08:03:37;9.80;73.30
61374;DHT22;47242;48.158;-1.586;2023-02-01T08:06:03;9.90;73.10
61374;DHT22;47242;48.158;-1.586;2023-02-01T08:08:28;9.90;72.90
61374;DHT22;47242;48.158;-1.586;2023-02-01T08:11:01;9.90;73.10
61374;DHT22;47242;48.158;-1.586;2023-02-01T08:13:28;9.90;73.10
61374;DHT22;47242;48.158;-1.586;2023-02-01T08:16:02;9.90;73.00
61374;DHT22;47242;48.158;-1.586;2023-02-01T08:18:28;9.90;73.10
61374;DHT22;47242;48.158;-1.586;2023-02-01T08:20:54;10.00;72.80
61374;DHT22;47242;48.158;-1.586;2023-02-01T08:23:21;10.00;72.70
61374;DHT22;47242;48.158;-1.586;2023-02-01T08:25:47;10.00;72.80
61374;DHT22;47242;48.158;-1.586;2023-02-01T08:28:13;10.00;73.10
61374;DHT22;47242;48.158;-1.586;2023-02-01T08:30:39;10.00;73.10
61374;DHT22;47242;48.158;-1.586;2023-02-01T08:33:07;10.00;73.10
61374;DHT22;47242;48.158;-1.586;2023-02-01T08:35:35;10.00;73.20
61374;DHT22;47242;48.158;-1.586;2023-02-01T08:38:01;10.00;72.90
61374;DHT22;47242;48.158;-1.586;2023-02-01T08:40:27;10.00;73.10
61374;DHT22;47242;48.158;-1.586;2023-02-01T08:42:53;10.00;72.70
61374;DHT22;47242;48.158;-1.586;2023-02-01T08:45:26;10.10;72.40
61374;DHT22;47242;48.158;-1.586;2023-02-01T08:47:52;10.20;72.30
61374;DHT22;47242;48.158;-1.586;2023-02-01T08:50:18;10.30;72.20
61374;DHT22;47242;48.158;-1.586;2023-02-01T08:52:45;10.30;71.80
61374;DHT22;47242;48.158;-1.586;2023-02-01T08:55:11;10.30;71.60
61374;DHT22;47242;48.158;-1.586;2023-02-01T08:57:37;10.40;71.30
61374;DHT22;47242;48.158;-1.586;2023-02-01T09:00:05;10.50;71.40
61374;DHT22;47242;48.158;-1.586;2023-02-01T09:02:31;10.50;71.20
61374;DHT22;47242;48.158;-1.586;2023-02-01T09:04:57;10.50;71.10
61374;DHT22;47242;48.158;-1.586;2023-02-01T09:07:23;10.60;70.60
61374;DHT22;47242;48.158;-1.586;2023-02-01T09:09:48;10.60;70.80
61374;DHT22;47242;48.158;-1.586;2023-02-01T09:12:14;10.60;70.70
61374;DHT22;47242;48.158;-1.586;2023-02-01T09:14:40;10.60;70.80
61374;DHT22;47242;48.158;-1.586;2023-02-01T09:17:05;10.60;70.20
61374;DHT22;47242;48.158;-1.586;2023-02-01T09:19:31;10.60;70.50
61374;DHT22;47242;48.158;-1.586;2023-02-01T09:21:58;10.60;70.70
61374;DHT22;47242;48.158;-1.586;2023-02-01T09:24:23;10.60;70.30
61374;DHT22;47242;48.158;-1.586;2023-02-01T09:26:49;10.60;70.70
61374;DHT22;47242;48.158;-1.586;2023-02-01T09:29:15;10.60;70.80
61374;DHT22;47242;48.158;-1.586;2023-02-01T09:31:41;10.60;70.40
61374;DHT22;47242;48.158;-1.586;2023-02-01T09:34:07;10.60;70.60
61374;DHT22;47242;48.158;-1.586;2023-02-01T09:36:33;10.60;70.70
61374;DHT22;47242;48.158;-1.586;2023-02-01T09:38:59;10.70;70.50
61374;DHT22;47242;48.158;-1.586;2023-02-01T09:44:34;10.70;70.70
61374;DHT22;47242;48.158;-1.586;2023-02-01T09:47:01;10.70;70.60
61374;DHT22;47242;48.158;-1.586;2023-02-01T09:49:30;10.80;70.20
61374;DHT22;47242;48.158;-1.586;2023-02-01T09:51:59;10.80;70.20
61374;DHT22;47242;48.158;-1.586;2023-02-01T09:54:29;10.80;70.20
61374;DHT22;47242;48.158;-1.586;2023-02-01T09:57:10;10.80;70.00
61374;DHT22;47242;48.158;-1.586;2023-02-01T09:59:44;10.80;70.10
61374;DHT22;47242;48.158;-1.586;2023-02-01T10:02:20;10.90;69.90
61374;DHT22;47242;48.158;-1.586;2023-02-01T10:04:47;10.90;69.50
61374;DHT22;47242;48.158;-1.586;2023-02-01T10:10:18;11.00;69.90
61374;DHT22;47242;48.158;-1.586;2023-02-01T10:12:53;11.00;69.20
61374;DHT22;47242;48.158;-1.586;2023-02-01T10:16:30;11.10;69.10
61374;DHT22;47242;48.158;-1.586;2023-02-01T10:23:59;11.30;68.60
61374;DHT22;47242;48.158;-1.586;2023-02-01T10:26:32;11.50;68.50
61374;DHT22;47242;48.158;-1.586;2023-02-01T10:29:01;11.50;68.50
61374;DHT22;47242;48.158;-1.586;2023-02-01T10:31:30;11.50;67.60
61374;DHT22;47242;48.158;-1.586;2023-02-01T10:33:59;11.50;67.70
61374;DHT22;47242;48.158;-1.586;2023-02-01T10:36:32;11.50;67.30
61374;DHT22;47242;48.158;-1.586;2023-02-01T10:39:03;11.40;67.40
61374;DHT22;47242;48.158;-1.586;2023-02-01T10:41:34;11.40;67.50
61374;DHT22;47242;48.158;-1.586;2023-02-01T10:44:03;11.50;67.10
61374;DHT22;47242;48.158;-1.586;2023-02-01T10:46:30;11.50;67.20
61374;DHT22;47242;48.158;-1.586;2023-02-01T10:48:58;11.60;67.30
61374;DHT22;47242;48.158;-1.586;2023-02-01T10:51:53;11.60;66.80
61374;DHT22;47242;48.158;-1.586;2023-02-01T10:54:36;11.60;67.00
61374;DHT22;47242;48.158;-1.586;2023-02-01T10:57:10;11.60;67.40
61374;DHT22;47242;48.158;-1.586;2023-02-01T10:59:37;11.60;66.60
61374;DHT22;47242;48.158;-1.586;2023-02-01T11:02:27;11.50;66.80
61374;DHT22;47242;48.158;-1.586;2023-02-01T11:05:08;11.50;67.40
61374;DHT22;47242;48.158;-1.586;2023-02-01T11:07:36;11.50;67.20
61374;DHT22;47242;48.158;-1.586;2023-02-01T11:10:02;11.50;67.30
61374;DHT22;47242;48.158;-1.586;2023-02-01T11:15:22;11.60;67.40
61374;DHT22;47242;48.158;-1.586;2023-02-01T11:17:50;11.60;67.50
61374;DHT22;47242;48.158;-1.586;2023-02-01T11:20:41;11.70;67.60
61374;DHT22;47242;48.158;-1.586;2023-02-01T11:23:20;11.80;67.30
61374;DHT22;47242;48.158;-1.586;2023-02-01T11:28:39;11.90;67.20
61374;DHT22;47242;48.158;-1.586;2023-02-01T11:31:08;12.00;66.20
61374;DHT22;47242;48.158;-1.586;2023-02-01T11:33:37;12.00;65.80
61374;DHT22;47242;48.158;-1.586;2023-02-01T11:36:16;12.00;65.50
61374;DHT22;47242;48.158;-1.586;2023-02-01T11:39:09;12.00;65.20
61374;DHT22;47242;48.158;-1.586;2023-02-01T11:41:33;12.00;64.70
61374;DHT22;47242;48.158;-1.586;2023-02-01T11:44:00;12.00;64.20
61374;DHT22;47242;48.158;-1.586;2023-02-01T11:46:31;12.10;64.60
61374;DHT22;47242;48.158;-1.586;2023-02-01T11:57:25;12.20;64.50
61374;DHT22;47242;48.158;-1.586;2023-02-01T12:13:49;12.80;63.30
61374;DHT22;47242;48.158;-1.586;2023-02-01T12:16:26;12.80;62.60
61374;DHT22;47242;48.158;-1.586;2023-02-01T12:19:21;12.80;62.90
61374;DHT22;47242;48.158;-1.586;2023-02-01T12:25:26;12.80;62.90
61374;DHT22;47242;48.158;-1.586;2023-02-01T12:30:58;13.00;62.70
61374;DHT22;47242;48.158;-1.586;2023-02-01T12:33:59;13.10;62.80
61374;DHT22;47242;48.158;-1.586;2023-02-01T12:39:23;13.10;61.20
61374;DHT22;47242;48.158;-1.586;2023-02-01T12:42:03;13.10;62.00
61374;DHT22;47242;48.158;-1.586;2023-02-01T12:44:49;13.10;61.40
61374;DHT22;47242;48.158;-1.586;2023-02-01T12:47:38;13.20;62.10
61374;DHT22;47242;48.158;-1.586;2023-02-01T12:50:12;13.10;61.60
61374;DHT22;47242;48.158;-1.586;2023-02-01T12:52:48;13.00;62.20
61374;DHT22;47242;48.158;-1.586;2023-02-01T12:55:35;13.00;62.40
61374;DHT22;47242;48.158;-1.586;2023-02-01T13:00:40;12.80;61.70
61374;DHT22;47242;48.158;-1.586;2023-02-01T13:06:06;12.70;63.00
61374;DHT22;47242;48.158;-1.586;2023-02-01T13:11:35;12.80;62.70
61374;DHT22;47242;48.158;-1.586;2023-02-01T13:14:32;12.80;62.30
61374;DHT22;47242;48.158;-1.586;2023-02-01T13:17:20;12.80;62.20
61374;DHT22;47242;48.158;-1.586;2023-02-01T13:20:13;12.80;61.50
61374;DHT22;47242;48.158;-1.586;2023-02-01T13:22:44;12.80;61.70
61374;DHT22;47242;48.158;-1.586;2023-02-01T13:28:12;12.80;62.20
61374;DHT22;47242;48.158;-1.586;2023-02-01T13:31:02;12.80;62.00
61374;DHT22;47242;48.158;-1.586;2023-02-01T13:39:30;12.60;62.60
61374;DHT22;47242;48.158;-1.586;2023-02-01T13:42:11;12.60;63.30
61374;DHT22;47242;48.158;-1.586;2023-02-01T13:44:42;12.60;63.40
61374;DHT22;47242;48.158;-1.586;2023-02-01T13:47:26;12.50;63.50
61374;DHT22;47242;48.158;-1.586;2023-02-01T13:49:54;12.40;63.60
61374;DHT22;47242;48.158;-1.586;2023-02-01T13:52:39;12.40;64.30
61374;DHT22;47242;48.158;-1.586;2023-02-01T13:57:48;12.30;64.20
61374;DHT22;47242;48.158;-1.586;2023-02-01T14:08:24;12.20;64.80
61374;DHT22;47242;48.158;-1.586;2023-02-01T14:11:00;12.20;65.10
61374;DHT22;47242;48.158;-1.586;2023-02-01T14:18:57;12.10;65.90
61374;DHT22;47242;48.158;-1.586;2023-02-01T14:21:33;12.00;66.00
61374;DHT22;47242;48.158;-1.586;2023-02-01T14:47:50;12.20;67.10
61374;DHT22;47242;48.158;-1.586;2023-02-01T14:56:07;12.30;66.50
61374;DHT22;47242;48.158;-1.586;2023-02-01T14:59:01;12.30;66.20
61374;DHT22;47242;48.158;-1.586;2023-02-01T15:01:34;12.30;66.30
61374;DHT22;47242;48.158;-1.586;2023-02-01T15:09:25;12.30;66.80
61374;DHT22;47242;48.158;-1.586;2023-02-01T15:14:41;12.30;67.20
61374;DHT22;47242;48.158;-1.586;2023-02-01T15:17:27;12.30;67.10
61374;DHT22;47242;48.158;-1.586;2023-02-01T15:22:36;12.20;67.10
61374;DHT22;47242;48.158;-1.586;2023-02-01T15:25:01;12.20;67.40
61374;DHT22;47242;48.158;-1.586;2023-02-01T15:27:29;12.20;67.30
61374;DHT22;47242;48.158;-1.586;2023-02-01T15:30:08;12.10;67.30
61374;DHT22;47242;48.158;-1.586;2023-02-01T15:32:37;12.00;67.50
61374;DHT22;47242;48.158;-1.586;2023-02-01T15:41:04;12.10;67.80
61374;DHT22;47242;48.158;-1.586;2023-02-01T15:46:34;12.10;67.90
61374;DHT22;47242;48.158;-1.586;2023-02-01T15:49:02;12.10;67.70
61374;DHT22;47242;48.158;-1.586;2023-02-01T15:51:31;12.00;67.60
61374;DHT22;47242;48.158;-1.586;2023-02-01T15:54:13;12.00;67.80
61374;DHT22;47242;48.158;-1.586;2023-02-01T15:56:49;12.00;67.40
61374;DHT22;47242;48.158;-1.586;2023-02-01T15:59:20;12.00;67.50
61374;DHT22;47242;48.158;-1.586;2023-02-01T16:01:47;12.00;67.60
61374;DHT22;47242;48.158;-1.586;2023-02-01T16:04:26;12.00;67.40
61374;DHT22;47242;48.158;-1.586;2023-02-01T16:06:55;11.90;67.60
61374;DHT22;47242;48.158;-1.586;2023-02-01T16:09:23;11.90;67.80
61374;DHT22;47242;48.158;-1.586;2023-02-01T16:11:59;11.80;67.80
61374;DHT22;47242;48.158;-1.586;2023-02-01T16:14:25;11.90;68.00
61374;DHT22;47242;48.158;-1.586;2023-02-01T16:16:53;11.90;68.00
61374;DHT22;47242;48.158;-1.586;2023-02-01T16:19:19;11.90;68.10
61374;DHT22;47242;48.158;-1.586;2023-02-01T16:21:45;11.90;68.40
61374;DHT22;47242;48.158;-1.586;2023-02-01T16:24:11;11.90;68.60
61374;DHT22;47242;48.158;-1.586;2023-02-01T16:26:37;11.80;68.80
61374;DHT22;47242;48.158;-1.586;2023-02-01T16:29:04;11.80;68.80
61374;DHT22;47242;48.158;-1.586;2023-02-01T16:31:35;11.80;69.00
61374;DHT22;47242;48.158;-1.586;2023-02-01T16:34:02;11.80;69.20
61374;DHT22;47242;48.158;-1.586;2023-02-01T16:36:28;11.70;68.90
61374;DHT22;47242;48.158;-1.586;2023-02-01T16:38:54;11.70;69.40
61374;DHT22;47242;48.158;-1.586;2023-02-01T16:41:22;11.70;69.40
61374;DHT22;47242;48.158;-1.586;2023-02-01T16:43:53;11.70;69.40
61374;DHT22;47242;48.158;-1.586;2023-02-01T16:46:21;11.70;69.40
61374;DHT22;47242;48.158;-1.586;2023-02-01T16:48:58;11.70;69.40
61374;DHT22;47242;48.158;-1.586;2023-02-01T16:51:26;11.70;69.40
61374;DHT22;47242;48.158;-1.586;2023-02-01T16:53:53;11.70;69.30
61374;DHT22;47242;48.158;-1.586;2023-02-01T16:56:28;11.60;69.30
61374;DHT22;47242;48.158;-1.586;2023-02-01T16:58:54;11.60;69.10
61374;DHT22;47242;48.158;-1.586;2023-02-01T17:01:20;11.60;69.10
61374;DHT22;47242;48.158;-1.586;2023-02-01T17:03:46;11.60;69.20
61374;DHT22;47242;48.158;-1.586;2023-02-01T17:06:34;11.60;69.20
61374;DHT22;47242;48.158;-1.586;2023-02-01T17:09:02;11.60;69.20
61374;DHT22;47242;48.158;-1.586;2023-02-01T17:11:28;11.60;69.00
61374;DHT22;47242;48.158;-1.586;2023-02-01T17:14:18;11.60;69.20
61374;DHT22;47242;48.158;-1.586;2023-02-01T17:16:46;11.50;69.20
61374;DHT22;47242;48.158;-1.586;2023-02-01T17:19:15;11.50;69.20
61374;DHT22;47242;48.158;-1.586;2023-02-01T17:21:48;11.50;69.40
61374;DHT22;47242;48.158;-1.586;2023-02-01T17:24:20;11.50;69.30
61374;DHT22;47242;48.158;-1.586;2023-02-01T17:26:46;11.50;69.30
61374;DHT22;47242;48.158;-1.586;2023-02-01T17:29:12;11.50;69.40
61374;DHT22;47242;48.158;-1.586;2023-02-01T17:31:44;11.40;69.40
61374;DHT22;47242;48.158;-1.586;2023-02-01T17:34:11;11.40;69.20
61374;DHT22;47242;48.158;-1.586;2023-02-01T17:36:38;11.40;69.50
61374;DHT22;47242;48.158;-1.586;2023-02-01T17:39:07;11.30;69.60
61374;DHT22;47242;48.158;-1.586;2023-02-01T17:41:33;11.30;69.50
61374;DHT22;47242;48.158;-1.586;2023-02-01T17:44:00;11.40;69.50
61374;DHT22;47242;48.158;-1.586;2023-02-01T17:46:26;11.30;69.70
61374;DHT22;47242;48.158;-1.586;2023-02-01T17:48:53;11.30;69.90
61374;DHT22;47242;48.158;-1.586;2023-02-01T17:51:24;11.30;69.90
61374;DHT22;47242;48.158;-1.586;2023-02-01T17:53:52;11.30;70.00
61374;DHT22;47242;48.158;-1.586;2023-02-01T17:56:20;11.30;70.00
61374;DHT22;47242;48.158;-1.586;2023-02-01T17:58:46;11.20;70.20
61374;DHT22;47242;48.158;-1.586;2023-02-01T18:01:18;11.20;70.00
61374;DHT22;47242;48.158;-1.586;2023-02-01T18:03:44;11.20;70.20
61374;DHT22;47242;48.158;-1.586;2023-02-01T18:06:16;11.20;70.30
61374;DHT22;47242;48.158;-1.586;2023-02-01T18:08:42;11.20;70.20
61374;DHT22;47242;48.158;-1.586;2023-02-01T18:11:16;11.20;70.30
61374;DHT22;47242;48.158;-1.586;2023-02-01T18:13:43;11.20;70.40
61374;DHT22;47242;48.158;-1.586;2023-02-01T18:16:29;11.10;70.40
61374;DHT22;47242;48.158;-1.586;2023-02-01T18:18:55;11.10;70.50
61374;DHT22;47242;48.158;-1.586;2023-02-01T18:21:38;11.10;71.00
61374;DHT22;47242;48.158;-1.586;2023-02-01T18:24:05;11.00;70.70
61374;DHT22;47242;48.158;-1.586;2023-02-01T18:26:38;11.00;70.70
61374;DHT22;47242;48.158;-1.586;2023-02-01T18:29:03;11.00;70.80
61374;DHT22;47242;48.158;-1.586;2023-02-01T18:31:30;10.90;70.60
61374;DHT22;47242;48.158;-1.586;2023-02-01T18:33:58;11.00;70.60
61374;DHT22;47242;48.158;-1.586;2023-02-01T18:36:24;11.00;70.40
61374;DHT22;47242;48.158;-1.586;2023-02-01T18:38:50;10.90;70.90
61374;DHT22;47242;48.158;-1.586;2023-02-01T18:41:18;10.90;70.70
61374;DHT22;47242;48.158;-1.586;2023-02-01T18:43:46;10.90;70.50
61374;DHT22;47242;48.158;-1.586;2023-02-01T18:46:12;10.90;70.60
61374;DHT22;47242;48.158;-1.586;2023-02-01T18:48:39;11.00;70.50
61374;DHT22;47242;48.158;-1.586;2023-02-01T18:51:05;11.00;70.80
61374;DHT22;47242;48.158;-1.586;2023-02-01T18:53:31;11.00;70.80
61374;DHT22;47242;48.158;-1.586;2023-02-01T18:55:58;10.90;70.90
61374;DHT22;47242;48.158;-1.586;2023-02-01T18:58:24;10.90;70.90
61374;DHT22;47242;48.158;-1.586;2023-02-01T19:00:52;10.90;70.70
61374;DHT22;47242;48.158;-1.586;2023-02-01T19:03:18;10.90;70.70
61374;DHT22;47242;48.158;-1.586;2023-02-01T19:05:45;10.90;70.40
61374;DHT22;47242;48.158;-1.586;2023-02-01T19:08:12;10.90;70.70
61374;DHT22;47242;48.158;-1.586;2023-02-01T19:10:41;10.80;70.70
61374;DHT22;47242;48.158;-1.586;2023-02-01T19:13:09;10.90;70.80
61374;DHT22;47242;48.158;-1.586;2023-02-01T19:15:38;10.80;70.90
61374;DHT22;47242;48.158;-1.586;2023-02-01T19:18:05;10.90;71.10
61374;DHT22;47242;48.158;-1.586;2023-02-01T19:20:31;10.90;70.90
61374;DHT22;47242;48.158;-1.586;2023-02-01T19:22:57;10.90;70.80
61374;DHT22;47242;48.158;-1.586;2023-02-01T19:25:24;10.80;71.20
61374;DHT22;47242;48.158;-1.586;2023-02-01T19:27:51;10.90;70.90
61374;DHT22;47242;48.158;-1.586;2023-02-01T19:30:17;10.90;70.90
61374;DHT22;47242;48.158;-1.586;2023-02-01T19:32:44;10.90;70.80
61374;DHT22;47242;48.158;-1.586;2023-02-01T19:35:11;10.90;71.00
61374;DHT22;47242;48.158;-1.586;2023-02-01T19:37:41;10.90;70.80
61374;DHT22;47242;48.158;-1.586;2023-02-01T19:40:12;10.90;70.90
61374;DHT22;47242;48.158;-1.586;2023-02-01T19:42:39;10.90;71.10
61374;DHT22;47242;48.158;-1.586;2023-02-01T19:45:06;10.80;71.10
61374;DHT22;47242;48.158;-1.586;2023-02-01T19:47:33;10.80;71.20
61374;DHT22;47242;48.158;-1.586;2023-02-01T19:49:59;10.80;71.20
61374;DHT22;47242;48.158;-1.586;2023-02-01T19:52:25;10.80;71.40
61374;DHT22;47242;48.158;-1.586;2023-02-01T19:54:51;10.80;71.40
61374;DHT22;47242;48.158;-1.586;2023-02-01T19:57:17;10.80;71.60
61374;DHT22;47242;48.158;-1.586;2023-02-01T19:59:42;10.80;71.50
61374;DHT22;47242;48.158;-1.586;2023-02-01T20:02:14;10.70;71.50
61374;DHT22;47242;48.158;-1.586;2023-02-01T20:04:40;10.80;71.60
61374;DHT22;47242;48.158;-1.586;2023-02-01T20:07:06;10.80;71.60
61374;DHT22;47242;48.158;-1.586;2023-02-01T20:09:36;10.80;71.70
61374;DHT22;47242;48.158;-1.586;2023-02-01T20:12:03;10.80;71.40
61374;DHT22;47242;48.158;-1.586;2023-02-01T20:14:29;10.80;71.50
61374;DHT22;47242;48.158;-1.586;2023-02-01T20:16:55;10.70;71.50
61374;DHT22;47242;48.158;-1.586;2023-02-01T20:19:21;10.80;71.40
61374;DHT22;47242;48.158;-1.586;2023-02-01T20:21:46;10.80;71.30
61374;DHT22;47242;48.158;-1.586;2023-02-01T20:24:15;10.80;71.20
61374;DHT22;47242;48.158;-1.586;2023-02-01T20:26:42;10.80;71.10
61374;DHT22;47242;48.158;-1.586;2023-02-01T20:29:08;10.80;71.10
61374;DHT22;47242;48.158;-1.586;2023-02-01T20:31:34;10.80;71.10
61374;DHT22;47242;48.158;-1.586;2023-02-01T20:34:00;10.80;71.10
61374;DHT22;47242;48.158;-1.586;2023-02-01T20:36:28;10.80;71.00
61374;DHT22;47242;48.158;-1.586;2023-02-01T20:38:55;10.80;71.10
61374;DHT22;47242;48.158;-1.586;2023-02-01T20:41:21;10.80;71.00
61374;DHT22;47242;48.158;-1.586;2023-02-01T20:43:47;10.70;71.00
61374;DHT22;47242;48.158;-1.586;2023-02-01T20:46:13;10.70;70.80
61374;DHT22;47242;48.158;-1.586;2023-02-01T20:48:43;10.70;70.80
61374;DHT22;47242;48.158;-1.586;2023-02-01T20:51:09;10.70;70.90
61374;DHT22;47242;48.158;-1.586;2023-02-01T20:53:36;10.70;70.90
61374;DHT22;47242;48.158;-1.586;2023-02-01T20:56:02;10.80;70.70
61374;DHT22;47242;48.158;-1.586;2023-02-01T20:58:28;10.80;70.50
61374;DHT22;47242;48.158;-1.586;2023-02-01T21:00:54;10.70;70.50
61374;DHT22;47242;48.158;-1.586;2023-02-01T21:03:20;10.80;70.50
61374;DHT22;47242;48.158;-1.586;2023-02-01T21:05:50;10.80;70.40
61374;DHT22;47242;48.158;-1.586;2023-02-01T21:08:17;10.80;70.20
61374;DHT22;47242;48.158;-1.586;2023-02-01T21:10:44;10.80;70.00
61374;DHT22;47242;48.158;-1.586;2023-02-01T21:13:19;10.70;70.20
61374;DHT22;47242;48.158;-1.586;2023-02-01T21:15:45;10.80;70.00
61374;DHT22;47242;48.158;-1.586;2023-02-01T21:18:11;10.70;70.00
61374;DHT22;47242;48.158;-1.586;2023-02-01T21:20:38;10.70;70.20
61374;DHT22;47242;48.158;-1.586;2023-02-01T21:23:04;10.70;69.80
61374;DHT22;47242;48.158;-1.586;2023-02-01T21:25:30;10.70;70.20
61374;DHT22;47242;48.158;-1.586;2023-02-01T21:27:56;10.70;70.20
61374;DHT22;47242;48.158;-1.586;2023-02-01T21:30:22;10.70;70.10
61374;DHT22;47242;48.158;-1.586;2023-02-01T21:32:47;10.70;69.90
61374;DHT22;47242;48.158;-1.586;2023-02-01T21:35:14;10.60;70.00
61374;DHT22;47242;48.158;-1.586;2023-02-01T21:37:41;10.60;70.10
61374;DHT22;47242;48.158;-1.586;2023-02-01T21:40:07;10.60;70.00
61374;DHT22;47242;48.158;-1.586;2023-02-01T21:42:33;10.50;70.40
61374;DHT22;47242;48.158;-1.586;2023-02-01T21:44:59;10.50;70.60
61374;DHT22;47242;48.158;-1.586;2023-02-01T21:47:27;10.50;70.50
61374;DHT22;47242;48.158;-1.586;2023-02-01T21:49:53;10.50;70.70
61374;DHT22;47242;48.158;-1.586;2023-02-01T21:52:19;10.50;70.80
61374;DHT22;47242;48.158;-1.586;2023-02-01T21:54:45;10.50;70.90
61374;DHT22;47242;48.158;-1.586;2023-02-01T21:57:10;10.50;70.90
61374;DHT22;47242;48.158;-1.586;2023-02-01T21:59:40;10.50;70.80
61374;DHT22;47242;48.158;-1.586;2023-02-01T22:02:13;10.40;70.90
61374;DHT22;47242;48.158;-1.586;2023-02-01T22:04:40;10.50;70.70
61374;DHT22;47242;48.158;-1.586;2023-02-01T22:07:07;10.40;70.90
61374;DHT22;47242;48.158;-1.586;2023-02-01T22:09:33;10.40;70.80
61374;DHT22;47242;48.158;-1.586;2023-02-01T22:11:59;10.40;70.90
61374;DHT22;47242;48.158;-1.586;2023-02-01T22:14:24;10.30;71.00
61374;DHT22;47242;48.158;-1.586;2023-02-01T22:16:50;10.30;71.10
61374;DHT22;47242;48.158;-1.586;2023-02-01T22:19:16;10.30;71.30
61374;DHT22;47242;48.158;-1.586;2023-02-01T22:21:44;10.30;71.30
61374;DHT22;47242;48.158;-1.586;2023-02-01T22:24:12;10.30;71.40
61374;DHT22;47242;48.158;-1.586;2023-02-01T22:26:40;10.30;71.30
61374;DHT22;47242;48.158;-1.586;2023-02-01T22:29:06;10.30;71.30
